sensor_id;sensor_type;location;lat;lon;timestamp;P1;P2;P0
70691;PMS5003;58267;51.156;17.044;2022-10-16T00:01:19;28;28;
70691;PMS5003;58267;51.156;17.044;2022-10-16T00:03:44;30;28;
70691;PMS5003;58267;51.156;17.044;2022-10-16T00:06:09;29;29;
70691;PMS5003;58267;51.156;17.044;2022-10-16T00:08:34;31;28;
70691;PMS5003;58267;51.156;17.044;2022-10-16T00:11:00;30;29;
70691;PMS5003;58267;51.156;17.044;2022-10-16T00:13:25;30;28;
70691;PMS5003;58267;51.156;17.044;2022-10-16T00:15:50;31;29;
70691;PMS5003;58267;51.156;17.044;2022-10-16T00:18:16;27;26;
70691;PMS5003;58267;51.156;17.044;2022-10-16T00:20:41;24;24;
70691;PMS5003;58267;51.156;17.044;2022-10-16T00:23:07;25;24;
70691;PMS5003;58267;51.156;17.044;2022-10-16T00:25:32;27;24;
70691;PMS5003;58267;51.156;17.044;2022-10-16T00:27:57;26;25;
70691;PMS5003;58267;51.156;17.044;2022-10-16T00:30:22;24;23;
70691;PMS5003;58267;51.156;17.044;2022-10-16T00:32:48;25;24;
70691;PMS5003;58267;51.156;17.044;2022-10-16T00:35:14;28;25;
70691;PMS5003;58267;51.156;17.044;2022-10-16T00:37:39;22;21;
70691;PMS5003;58267;51.156;17.044;2022-10-16T00:40:05;23;21;
70691;PMS5003;58267;51.156;17.044;2022-10-16T00:42:30;23;22;
70691;PMS5003;58267;51.156;17.044;2022-10-16T00:44:57;24;24;
70691;PMS5003;58267;51.156;17.044;2022-10-16T00:47:23;23;21;
70691;PMS5003;58267;51.156;17.044;2022-10-16T00:49:47;26;23;
70691;PMS5003;58267;51.156;17.044;2022-10-16T00:52:13;24;22;
70691;PMS5003;58267;51.156;17.044;2022-10-16T00:54:38;23;23;
70691;PMS5003;58267;51.156;17.044;2022-10-16T00:57:05;26;24;
70691;PMS5003;58267;51.156;17.044;2022-10-16T00:59:30;24;23;
70691;PMS5003;58267;51.156;17.044;2022-10-16T01:01:55;21;20;
70691;PMS5003;58267;51.156;17.044;2022-10-16T01:04:20;23;22;
70691;PMS5003;58267;51.156;17.044;2022-10-16T01:06:47;24;22;
70691;PMS5003;58267;51.156;17.044;2022-10-16T01:09:13;17;17;
70691;PMS5003;58267;51.156;17.044;2022-10-16T01:11:38;17;16;
70691;PMS5003;58267;51.156;17.044;2022-10-16T01:14:06;18;18;
70691;PMS5003;58267;51.156;17.044;2022-10-16T01:16:29;20;20;
70691;PMS5003;58267;51.156;17.044;2022-10-16T01:18:54;16;15;
70691;PMS5003;58267;51.156;17.044;2022-10-16T01:21:19;18;18;
70691;PMS5003;58267;51.156;17.044;2022-10-16T01:23:46;17;17;
70691;PMS5003;58267;51.156;17.044;2022-10-16T01:26:13;18;18;
70691;PMS5003;58267;51.156;17.044;2022-10-16T01:28:36;17;17;
70691;PMS5003;58267;51.156;17.044;2022-10-16T01:31:00;20;19;
70691;PMS5003;58267;51.156;17.044;2022-10-16T01:33:27;15;15;
70691;PMS5003;58267;51.156;17.044;2022-10-16T01:35:52;19;19;
70691;PMS5003;58267;51.156;17.044;2022-10-16T01:38:18;19;19;
70691;PMS5003;58267;51.156;17.044;2022-10-16T01:40:43;17;16;
70691;PMS5003;58267;51.156;17.044;2022-10-16T01:43:08;17;17;
70691;PMS5003;58267;51.156;17.044;2022-10-16T01:45:33;19;19;
70691;PMS5003;58267;51.156;17.044;2022-10-16T01:47:59;17;17;
70691;PMS5003;58267;51.156;17.044;2022-10-16T01:50:24;15;14;
70691;PMS5003;58267;51.156;17.044;2022-10-16T01:52:50;16;16;
70691;PMS5003;58267;51.156;17.044;2022-10-16T01:55:17;18;16;
70691;PMS5003;58267;51.156;17.044;2022-10-16T01:57:42;20;19;
70691;PMS5003;58267;51.156;17.044;2022-10-16T02:00:08;17;17;
70691;PMS5003;58267;51.156;17.044;2022-10-16T02:02:32;18;17;
70691;PMS5003;58267;51.156;17.044;2022-10-16T02:04:58;17;17;
70691;PMS5003;58267;51.156;17.044;2022-10-16T02:07:22;14;14;
70691;PMS5003;58267;51.156;17.044;2022-10-16T02:09:48;17;16;
70691;PMS5003;58267;51.156;17.044;2022-10-16T02:12:15;19;19;
70691;PMS5003;58267;51.156;17.044;2022-10-16T02:14:40;15;15;
70691;PMS5003;58267;51.156;17.044;2022-10-16T02:17:09;17;16;
70691;PMS5003;58267;51.156;17.044;2022-10-16T02:19:30;19;17;
70691;PMS5003;58267;51.156;17.044;2022-10-16T02:21:56;19;18;
70691;PMS5003;58267;51.156;17.044;2022-10-16T02:24:22;19;18;
70691;PMS5003;58267;51.156;17.044;2022-10-16T02:26:49;16;16;
70691;PMS5003;58267;51.156;17.044;2022-10-16T02:29:12;17;17;
70691;PMS5003;58267;51.156;17.044;2022-10-16T02:31:38;18;18;
70691;PMS5003;58267;51.156;17.044;2022-10-16T02:34:02;12;11;
70691;PMS5003;58267;51.156;17.044;2022-10-16T02:36:28;18;17;
70691;PMS5003;58267;51.156;17.044;2022-10-16T02:38:53;15;15;
70691;PMS5003;58267;51.156;17.044;2022-10-16T02:41:20;21;20;
70691;PMS5003;58267;51.156;17.044;2022-10-16T02:43:44;16;16;
70691;PMS5003;58267;51.156;17.044;2022-10-16T02:46:09;19;19;
70691;PMS5003;58267;51.156;17.044;2022-10-16T02:48:34;17;16;
70691;PMS5003;58267;51.156;17.044;2022-10-16T02:51:00;17;15;
70691;PMS5003;58267;51.156;17.044;2022-10-16T02:53:25;20;20;
70691;PMS5003;58267;51.156;17.044;2022-10-16T02:55:50;20;20;
70691;PMS5003;58267;51.156;17.044;2022-10-16T02:58:16;18;17;
70691;PMS5003;58267;51.156;17.044;2022-10-16T03:00:41;22;21;
70691;PMS5003;58267;51.156;17.044;2022-10-16T03:03:06;14;14;
70691;PMS5003;58267;51.156;17.044;2022-10-16T03:05:31;22;21;
70691;PMS5003;58267;51.156;17.044;2022-10-16T03:07:57;20;19;
70691;PMS5003;58267;51.156;17.044;2022-10-16T03:10:22;19;19;
70691;PMS5003;58267;51.156;17.044;2022-10-16T03:12:47;18;18;
70691;PMS5003;58267;51.156;17.044;2022-10-16T03:15:12;19;19;
70691;PMS5003;58267;51.156;17.044;2022-10-16T03:17:38;22;21;
70691;PMS5003;58267;51.156;17.044;2022-10-16T03:20:04;18;17;
70691;PMS5003;58267;51.156;17.044;2022-10-16T03:22:28;20;19;
70691;PMS5003;58267;51.156;17.044;2022-10-16T03:24:54;18;17;
70691;PMS5003;58267;51.156;17.044;2022-10-16T03:27:19;20;19;
70691;PMS5003;58267;51.156;17.044;2022-10-16T03:29:44;18;18;
70691;PMS5003;58267;51.156;17.044;2022-10-16T03:32:10;18;17;
70691;PMS5003;58267;51.156;17.044;2022-10-16T03:34:36;18;18;
70691;PMS5003;58267;51.156;17.044;2022-10-16T03:37:01;20;20;
70691;PMS5003;58267;51.156;17.044;2022-10-16T03:39:26;22;22;
70691;PMS5003;58267;51.156;17.044;2022-10-16T03:41:52;18;17;
70691;PMS5003;58267;51.156;17.044;2022-10-16T03:44:17;20;18;
70691;PMS5003;58267;51.156;17.044;2022-10-16T03:46:42;17;17;
70691;PMS5003;58267;51.156;17.044;2022-10-16T03:49:07;21;21;
70691;PMS5003;58267;51.156;17.044;2022-10-16T03:51:33;18;18;
70691;PMS5003;58267;51.156;17.044;2022-10-16T03:53:58;17;17;
70691;PMS5003;58267;51.156;17.044;2022-10-16T03:56:23;21;20;
70691;PMS5003;58267;51.156;17.044;2022-10-16T03:58:49;18;17;
70691;PMS5003;58267;51.156;17.044;2022-10-16T04:01:14;19;19;
70691;PMS5003;58267;51.156;17.044;2022-10-16T04:03:40;20;20;
70691;PMS5003;58267;51.156;17.044;2022-10-16T04:06:05;21;21;
70691;PMS5003;58267;51.156;17.044;2022-10-16T04:08:30;26;25;
70691;PMS5003;58267;51.156;17.044;2022-10-16T04:10:56;20;19;
70691;PMS5003;58267;51.156;17.044;2022-10-16T04:13:22;19;18;
70691;PMS5003;58267;51.156;17.044;2022-10-16T04:15:47;18;18;
70691;PMS5003;58267;51.156;17.044;2022-10-16T04:18:13;20;20;
70691;PMS5003;58267;51.156;17.044;2022-10-16T04:20:39;20;19;
70691;PMS5003;58267;51.156;17.044;2022-10-16T04:23:05;21;21;
70691;PMS5003;58267;51.156;17.044;2022-10-16T04:25:30;23;22;
70691;PMS5003;58267;51.156;17.044;2022-10-16T04:27:56;24;21;
70691;PMS5003;58267;51.156;17.044;2022-10-16T04:30:23;20;18;
70691;PMS5003;58267;51.156;17.044;2022-10-16T04:32:48;21;21;
70691;PMS5003;58267;51.156;17.044;2022-10-16T04:35:14;26;24;
70691;PMS5003;58267;51.156;17.044;2022-10-16T04:37:39;22;21;
70691;PMS5003;58267;51.156;17.044;2022-10-16T04:40:05;21;20;
70691;PMS5003;58267;51.156;17.044;2022-10-16T04:42:30;23;22;
70691;PMS5003;58267;51.156;17.044;2022-10-16T04:44:55;26;24;
70691;PMS5003;58267;51.156;17.044;2022-10-16T04:47:20;23;22;
70691;PMS5003;58267;51.156;17.044;2022-10-16T04:49:46;21;20;
70691;PMS5003;58267;51.156;17.044;2022-10-16T04:52:12;18;18;
70691;PMS5003;58267;51.156;17.044;2022-10-16T04:54:37;20;18;
70691;PMS5003;58267;51.156;17.044;2022-10-16T04:57:03;19;19;
70691;PMS5003;58267;51.156;17.044;2022-10-16T04:59:28;23;21;
70691;PMS5003;58267;51.156;17.044;2022-10-16T05:01:53;22;21;
70691;PMS5003;58267;51.156;17.044;2022-10-16T05:04:19;19;19;
70691;PMS5003;58267;51.156;17.044;2022-10-16T05:06:45;19;18;
70691;PMS5003;58267;51.156;17.044;2022-10-16T05:09:10;19;19;
70691;PMS5003;58267;51.156;17.044;2022-10-16T05:11:36;21;20;
70691;PMS5003;58267;51.156;17.044;2022-10-16T05:14:02;16;16;
70691;PMS5003;58267;51.156;17.044;2022-10-16T05:16:26;18;17;
70691;PMS5003;58267;51.156;17.044;2022-10-16T05:18:52;17;17;
70691;PMS5003;58267;51.156;17.044;2022-10-16T05:21:18;20;17;
70691;PMS5003;58267;51.156;17.044;2022-10-16T05:23:43;19;18;
70691;PMS5003;58267;51.156;17.044;2022-10-16T05:26:08;21;21;
70691;PMS5003;58267;51.156;17.044;2022-10-16T05:28:34;15;15;
70691;PMS5003;58267;51.156;17.044;2022-10-16T05:31:03;19;17;
70691;PMS5003;58267;51.156;17.044;2022-10-16T05:33:25;19;17;
70691;PMS5003;58267;51.156;17.044;2022-10-16T05:35:50;16;15;
70691;PMS5003;58267;51.156;17.044;2022-10-16T05:38:16;19;19;
70691;PMS5003;58267;51.156;17.044;2022-10-16T05:40:41;18;18;
70691;PMS5003;58267;51.156;17.044;2022-10-16T05:43:07;17;17;
70691;PMS5003;58267;51.156;17.044;2022-10-16T05:45:33;18;17;
70691;PMS5003;58267;51.156;17.044;2022-10-16T05:47:59;17;17;
70691;PMS5003;58267;51.156;17.044;2022-10-16T05:50:24;21;20;
70691;PMS5003;58267;51.156;17.044;2022-10-16T05:52:50;15;14;
70691;PMS5003;58267;51.156;17.044;2022-10-16T05:55:15;16;15;
70691;PMS5003;58267;51.156;17.044;2022-10-16T05:57:40;20;19;
70691;PMS5003;58267;51.156;17.044;2022-10-16T06:00:06;18;18;
70691;PMS5003;58267;51.156;17.044;2022-10-16T06:02:33;20;20;
70691;PMS5003;58267;51.156;17.044;2022-10-16T06:04:58;21;20;
70691;PMS5003;58267;51.156;17.044;2022-10-16T06:07:24;17;16;
70691;PMS5003;58267;51.156;17.044;2022-10-16T06:09:49;17;16;
70691;PMS5003;58267;51.156;17.044;2022-10-16T06:12:14;20;18;
70691;PMS5003;58267;51.156;17.044;2022-10-16T06:14:40;19;19;
70691;PMS5003;58267;51.156;17.044;2022-10-16T06:17:05;21;20;
70691;PMS5003;58267;51.156;17.044;2022-10-16T06:19:30;19;18;
70691;PMS5003;58267;51.156;17.044;2022-10-16T06:21:56;18;17;
70691;PMS5003;58267;51.156;17.044;2022-10-16T06:24:21;28;27;
70691;PMS5003;58267;51.156;17.044;2022-10-16T06:26:47;24;24;
70691;PMS5003;58267;51.156;17.044;2022-10-16T06:29:12;24;22;
70691;PMS5003;58267;51.156;17.044;2022-10-16T06:31:37;21;19;
70691;PMS5003;58267;51.156;17.044;2022-10-16T06:34:03;21;21;
70691;PMS5003;58267;51.156;17.044;2022-10-16T06:36:29;20;20;
70691;PMS5003;58267;51.156;17.044;2022-10-16T06:38:54;20;18;
70691;PMS5003;58267;51.156;17.044;2022-10-16T06:41:21;21;19;
70691;PMS5003;58267;51.156;17.044;2022-10-16T06:43:45;16;16;
70691;PMS5003;58267;51.156;17.044;2022-10-16T06:46:11;18;17;
70691;PMS5003;58267;51.156;17.044;2022-10-16T06:48:36;20;20;
70691;PMS5003;58267;51.156;17.044;2022-10-16T06:51:02;19;19;
70691;PMS5003;58267;51.156;17.044;2022-10-16T06:53:27;21;20;
70691;PMS5003;58267;51.156;17.044;2022-10-16T06:55:52;19;18;
70691;PMS5003;58267;51.156;17.044;2022-10-16T06:58:17;19;19;
70691;PMS5003;58267;51.156;17.044;2022-10-16T07:00:42;20;18;
70691;PMS5003;58267;51.156;17.044;2022-10-16T07:03:08;22;20;
70691;PMS5003;58267;51.156;17.044;2022-10-16T07:05:36;21;21;
70691;PMS5003;58267;51.156;17.044;2022-10-16T07:08:01;19;18;
70691;PMS5003;58267;51.156;17.044;2022-10-16T07:10:26;19;18;
70691;PMS5003;58267;51.156;17.044;2022-10-16T07:12:51;22;20;
70691;PMS5003;58267;51.156;17.044;2022-10-16T07:15:17;19;19;
70691;PMS5003;58267;51.156;17.044;2022-10-16T07:17:42;20;19;
70691;PMS5003;58267;51.156;17.044;2022-10-16T07:20:08;19;18;
70691;PMS5003;58267;51.156;17.044;2022-10-16T07:22:33;16;16;
70691;PMS5003;58267;51.156;17.044;2022-10-16T07:24:58;19;18;
70691;PMS5003;58267;51.156;17.044;2022-10-16T07:27:23;15;15;
70691;PMS5003;58267;51.156;17.044;2022-10-16T07:29:49;19;19;
70691;PMS5003;58267;51.156;17.044;2022-10-16T07:32:14;16;16;
70691;PMS5003;58267;51.156;17.044;2022-10-16T07:34:39;19;19;
70691;PMS5003;58267;51.156;17.044;2022-10-16T07:37:05;22;21;
70691;PMS5003;58267;51.156;17.044;2022-10-16T07:39:30;24;23;
70691;PMS5003;58267;51.156;17.044;2022-10-16T07:41:55;19;19;
70691;PMS5003;58267;51.156;17.044;2022-10-16T07:44:21;18;17;
70691;PMS5003;58267;51.156;17.044;2022-10-16T07:46:46;21;19;
70691;PMS5003;58267;51.156;17.044;2022-10-16T07:49:11;22;20;
70691;PMS5003;58267;51.156;17.044;2022-10-16T07:51:37;19;19;
70691;PMS5003;58267;51.156;17.044;2022-10-16T07:54:02;21;21;
70691;PMS5003;58267;51.156;17.044;2022-10-16T07:56:27;17;17;
70691;PMS5003;58267;51.156;17.044;2022-10-16T07:58:53;17;17;
70691;PMS5003;58267;51.156;17.044;2022-10-16T08:01:19;18;17;
70691;PMS5003;58267;51.156;17.044;2022-10-16T08:03:45;17;16;
70691;PMS5003;58267;51.156;17.044;2022-10-16T08:06:09;18;16;
70691;PMS5003;58267;51.156;17.044;2022-10-16T08:08:35;20;18;
70691;PMS5003;58267;51.156;17.044;2022-10-16T08:11:01;21;20;
70691;PMS5003;58267;51.156;17.044;2022-10-16T08:13:26;15;15;
70691;PMS5003;58267;51.156;17.044;2022-10-16T08:15:51;18;18;
70691;PMS5003;58267;51.156;17.044;2022-10-16T08:18:16;16;16;
70691;PMS5003;58267;51.156;17.044;2022-10-16T08:20:43;15;15;
70691;PMS5003;58267;51.156;17.044;2022-10-16T08:23:08;14;13;
70691;PMS5003;58267;51.156;17.044;2022-10-16T08:25:34;12;12;
70691;PMS5003;58267;51.156;17.044;2022-10-16T08:27:58;13;13;
70691;PMS5003;58267;51.156;17.044;2022-10-16T08:30:24;13;13;
70691;PMS5003;58267;51.156;17.044;2022-10-16T08:32:49;10;10;
70691;PMS5003;58267;51.156;17.044;2022-10-16T08:35:14;12;10;
70691;PMS5003;58267;51.156;17.044;2022-10-16T08:37:39;10;10;
70691;PMS5003;58267;51.156;17.044;2022-10-16T08:40:05;13;13;
70691;PMS5003;58267;51.156;17.044;2022-10-16T08:42:32;14;13;
70691;PMS5003;58267;51.156;17.044;2022-10-16T08:47:21;12;12;
70691;PMS5003;58267;51.156;17.044;2022-10-16T08:49:50;11;11;
70691;PMS5003;58267;51.156;17.044;2022-10-16T08:52:11;17;16;
70691;PMS5003;58267;51.156;17.044;2022-10-16T08:54:37;11;11;
70691;PMS5003;58267;51.156;17.044;2022-10-16T08:57:07;13;13;
70691;PMS5003;58267;51.156;17.044;2022-10-16T08:59:27;11;11;
70691;PMS5003;58267;51.156;17.044;2022-10-16T09:01:53;11;10;
70691;PMS5003;58267;51.156;17.044;2022-10-16T09:06:45;13;11;
70691;PMS5003;58267;51.156;17.044;2022-10-16T09:09:14;10;10;
70691;PMS5003;58267;51.156;17.044;2022-10-16T09:11:36;10;10;
70691;PMS5003;58267;51.156;17.044;2022-10-16T09:14:00;10;10;
70691;PMS5003;58267;51.156;17.044;2022-10-16T09:16:26;12;12;
70691;PMS5003;58267;51.156;17.044;2022-10-16T09:18:52;11;11;
70691;PMS5003;58267;51.156;17.044;2022-10-16T09:21:15;10;10;
70691;PMS5003;58267;51.156;17.044;2022-10-16T09:23:40;11;10;
70691;PMS5003;58267;51.156;17.044;2022-10-16T09:26:09;13;12;
70691;PMS5003;58267;51.156;17.044;2022-10-16T09:28:31;11;11;
70691;PMS5003;58267;51.156;17.044;2022-10-16T09:30:57;11;11;
70691;PMS5003;58267;51.156;17.044;2022-10-16T09:33:23;12;12;
70691;PMS5003;58267;51.156;17.044;2022-10-16T09:35:48;11;11;
70691;PMS5003;58267;51.156;17.044;2022-10-16T09:40:38;11;10;
70691;PMS5003;58267;51.156;17.044;2022-10-16T09:43:16;11;11;
70691;PMS5003;58267;51.156;17.044;2022-10-16T09:45:28;9;9;
70691;PMS5003;58267;51.156;17.044;2022-10-16T09:47:53;11;11;
70691;PMS5003;58267;51.156;17.044;2022-10-16T09:50:20;12;12;
70691;PMS5003;58267;51.156;17.044;2022-10-16T09:52:44;12;11;
70691;PMS5003;58267;51.156;17.044;2022-10-16T09:55:13;13;13;
70691;PMS5003;58267;51.156;17.044;2022-10-16T09:57:34;11;11;
70691;PMS5003;58267;51.156;17.044;2022-10-16T10:00:00;10;10;
70691;PMS5003;58267;51.156;17.044;2022-10-16T10:02:27;11;11;
70691;PMS5003;58267;51.156;17.044;2022-10-16T10:04:51;14;14;
70691;PMS5003;58267;51.156;17.044;2022-10-16T10:07:17;11;11;
70691;PMS5003;58267;51.156;17.044;2022-10-16T10:09:42;12;12;
70691;PMS5003;58267;51.156;17.044;2022-10-16T10:14:34;12;12;
70691;PMS5003;58267;51.156;17.044;2022-10-16T10:19:23;10;10;
70691;PMS5003;58267;51.156;17.044;2022-10-16T10:21:49;13;13;
70691;PMS5003;58267;51.156;17.044;2022-10-16T10:24:14;13;13;
70691;PMS5003;58267;51.156;17.044;2022-10-16T10:26:40;11;11;
70691;PMS5003;58267;51.156;17.044;2022-10-16T10:29:05;9;9;
70691;PMS5003;58267;51.156;17.044;2022-10-16T10:31:32;11;10;
70691;PMS5003;58267;51.156;17.044;2022-10-16T10:33:56;12;12;
70691;PMS5003;58267;51.156;17.044;2022-10-16T10:36:22;11;11;
70691;PMS5003;58267;51.156;17.044;2022-10-16T10:38:47;13;12;
70691;PMS5003;58267;51.156;17.044;2022-10-16T10:41:16;13;12;
70691;PMS5003;58267;51.156;17.044;2022-10-16T10:43:39;14;13;
70691;PMS5003;58267;51.156;17.044;2022-10-16T10:46:01;12;11;
70691;PMS5003;58267;51.156;17.044;2022-10-16T10:48:32;11;10;
70691;PMS5003;58267;51.156;17.044;2022-10-16T10:50:52;11;10;
70691;PMS5003;58267;51.156;17.044;2022-10-16T10:53:18;12;12;
70691;PMS5003;58267;51.156;17.044;2022-10-16T10:55:43;9;9;
70691;PMS5003;58267;51.156;17.044;2022-10-16T11:00:33;9;9;
70691;PMS5003;58267;51.156;17.044;2022-10-16T11:02:58;9;9;
70691;PMS5003;58267;51.156;17.044;2022-10-16T11:05:26;6;6;
70691;PMS5003;58267;51.156;17.044;2022-10-16T11:07:47;9;9;
70691;PMS5003;58267;51.156;17.044;2022-10-16T11:10:12;9;9;
70691;PMS5003;58267;51.156;17.044;2022-10-16T11:12:38;12;11;
70691;PMS5003;58267;51.156;17.044;2022-10-16T11:15:03;11;10;
70691;PMS5003;58267;51.156;17.044;2022-10-16T11:17:28;9;9;
70691;PMS5003;58267;51.156;17.044;2022-10-16T11:19:54;12;11;
70691;PMS5003;58267;51.156;17.044;2022-10-16T11:22:19;7;7;
70691;PMS5003;58267;51.156;17.044;2022-10-16T11:24:44;7;7;
70691;PMS5003;58267;51.156;17.044;2022-10-16T11:27:09;10;8;
70691;PMS5003;58267;51.156;17.044;2022-10-16T11:29:33;9;9;
70691;PMS5003;58267;51.156;17.044;2022-10-16T11:31:59;10;10;
70691;PMS5003;58267;51.156;17.044;2022-10-16T11:34:24;10;10;
70691;PMS5003;58267;51.156;17.044;2022-10-16T11:36:50;9;9;
70691;PMS5003;58267;51.156;17.044;2022-10-16T11:39:18;20;20;
70691;PMS5003;58267;51.156;17.044;2022-10-16T11:41:42;18;16;
70691;PMS5003;58267;51.156;17.044;2022-10-16T11:44:09;41;40;
70691;PMS5003;58267;51.156;17.044;2022-10-16T11:46:30;16;15;
70691;PMS5003;58267;51.156;17.044;2022-10-16T11:48:56;35;34;
70691;PMS5003;58267;51.156;17.044;2022-10-16T11:51:22;14;14;
70691;PMS5003;58267;51.156;17.044;2022-10-16T11:53:49;11;11;
70691;PMS5003;58267;51.156;17.044;2022-10-16T11:56:12;20;20;
70691;PMS5003;58267;51.156;17.044;2022-10-16T11:58:37;33;33;
70691;PMS5003;58267;51.156;17.044;2022-10-16T12:01:06;20;20;
70691;PMS5003;58267;51.156;17.044;2022-10-16T12:03:28;10;10;
70691;PMS5003;58267;51.156;17.044;2022-10-16T12:05:57;10;9;
70691;PMS5003;58267;51.156;17.044;2022-10-16T12:08:18;14;14;
70691;PMS5003;58267;51.156;17.044;2022-10-16T12:10:45;9;9;
70691;PMS5003;58267;51.156;17.044;2022-10-16T12:15:35;11;11;
70691;PMS5003;58267;51.156;17.044;2022-10-16T12:18:00;15;15;
70691;PMS5003;58267;51.156;17.044;2022-10-16T12:20:27;11;11;
70691;PMS5003;58267;51.156;17.044;2022-10-16T12:22:52;10;10;
70691;PMS5003;58267;51.156;17.044;2022-10-16T12:25:19;10;9;
70691;PMS5003;58267;51.156;17.044;2022-10-16T12:27:42;11;11;
70691;PMS5003;58267;51.156;17.044;2022-10-16T12:32:32;12;11;
70691;PMS5003;58267;51.156;17.044;2022-10-16T12:34:57;10;10;
70691;PMS5003;58267;51.156;17.044;2022-10-16T12:37:23;16;15;
70691;PMS5003;58267;51.156;17.044;2022-10-16T12:39:48;11;11;
70691;PMS5003;58267;51.156;17.044;2022-10-16T12:44:39;13;12;
70691;PMS5003;58267;51.156;17.044;2022-10-16T12:47:18;16;15;
70691;PMS5003;58267;51.156;17.044;2022-10-16T12:49:31;15;15;
70691;PMS5003;58267;51.156;17.044;2022-10-16T12:51:55;12;12;
70691;PMS5003;58267;51.156;17.044;2022-10-16T12:54:21;11;11;
70691;PMS5003;58267;51.156;17.044;2022-10-16T12:56:48;14;13;
70691;PMS5003;58267;51.156;17.044;2022-10-16T12:59:14;13;13;
70691;PMS5003;58267;51.156;17.044;2022-10-16T13:01:38;11;10;
70691;PMS5003;58267;51.156;17.044;2022-10-16T13:06:29;13;13;
70691;PMS5003;58267;51.156;17.044;2022-10-16T13:11:20;14;14;
70691;PMS5003;58267;51.156;17.044;2022-10-16T13:13:47;15;15;
70691;PMS5003;58267;51.156;17.044;2022-10-16T13:16:12;45;43;
70691;PMS5003;58267;51.156;17.044;2022-10-16T13:18:36;18;17;
70691;PMS5003;58267;51.156;17.044;2022-10-16T13:21:06;42;40;
70691;PMS5003;58267;51.156;17.044;2022-10-16T13:23:26;19;18;
70691;PMS5003;58267;51.156;17.044;2022-10-16T13:25:55;16;16;
70691;PMS5003;58267;51.156;17.044;2022-10-16T13:28:16;18;18;
70691;PMS5003;58267;51.156;17.044;2022-10-16T13:30:42;23;23;
70691;PMS5003;58267;51.156;17.044;2022-10-16T13:33:07;22;21;
70691;PMS5003;58267;51.156;17.044;2022-10-16T13:35:33;19;18;
70691;PMS5003;58267;51.156;17.044;2022-10-16T13:40:24;16;15;
70691;PMS5003;58267;51.156;17.044;2022-10-16T13:42:49;22;21;
70691;PMS5003;58267;51.156;17.044;2022-10-16T13:45:17;26;25;
70691;PMS5003;58267;51.156;17.044;2022-10-16T13:47:39;20;20;
70691;PMS5003;58267;51.156;17.044;2022-10-16T13:50:05;19;19;
70691;PMS5003;58267;51.156;17.044;2022-10-16T13:52:30;16;15;
70691;PMS5003;58267;51.156;17.044;2022-10-16T13:54:55;20;20;
70691;PMS5003;58267;51.156;17.044;2022-10-16T13:57:21;14;14;
70691;PMS5003;58267;51.156;17.044;2022-10-16T13:59:45;14;14;
70691;PMS5003;58267;51.156;17.044;2022-10-16T14:02:16;14;14;
70691;PMS5003;58267;51.156;17.044;2022-10-16T14:04:37;16;15;
70691;PMS5003;58267;51.156;17.044;2022-10-16T14:07:01;14;13;
70691;PMS5003;58267;51.156;17.044;2022-10-16T14:09:27;16;16;
70691;PMS5003;58267;51.156;17.044;2022-10-16T14:11:53;17;16;
70691;PMS5003;58267;51.156;17.044;2022-10-16T14:14:17;14;14;
70691;PMS5003;58267;51.156;17.044;2022-10-16T14:16:43;12;12;
70691;PMS5003;58267;51.156;17.044;2022-10-16T14:19:13;14;13;
70691;PMS5003;58267;51.156;17.044;2022-10-16T14:21:34;13;12;
70691;PMS5003;58267;51.156;17.044;2022-10-16T14:23:59;12;11;
70691;PMS5003;58267;51.156;17.044;2022-10-16T14:26:26;12;11;
70691;PMS5003;58267;51.156;17.044;2022-10-16T14:33:41;11;11;
70691;PMS5003;58267;51.156;17.044;2022-10-16T14:36:10;16;16;
70691;PMS5003;58267;51.156;17.044;2022-10-16T14:38:32;16;14;
70691;PMS5003;58267;51.156;17.044;2022-10-16T14:40:58;12;12;
70691;PMS5003;58267;51.156;17.044;2022-10-16T14:43:25;15;14;
70691;PMS5003;58267;51.156;17.044;2022-10-16T14:45:50;14;14;
70691;PMS5003;58267;51.156;17.044;2022-10-16T14:48:15;14;13;
70691;PMS5003;58267;51.156;17.044;2022-10-16T14:50:39;12;12;
70691;PMS5003;58267;51.156;17.044;2022-10-16T14:53:07;14;14;
70691;PMS5003;58267;51.156;17.044;2022-10-16T14:55:29;12;12;
70691;PMS5003;58267;51.156;17.044;2022-10-16T14:57:54;12;11;
70691;PMS5003;58267;51.156;17.044;2022-10-16T15:00:21;19;18;
70691;PMS5003;58267;51.156;17.044;2022-10-16T15:02:46;17;16;
70691;PMS5003;58267;51.156;17.044;2022-10-16T15:05:12;15;15;
70691;PMS5003;58267;51.156;17.044;2022-10-16T15:07:36;10;10;
70691;PMS5003;58267;51.156;17.044;2022-10-16T15:10:01;11;10;
70691;PMS5003;58267;51.156;17.044;2022-10-16T15:12:27;11;10;
70691;PMS5003;58267;51.156;17.044;2022-10-16T15:14:52;15;14;
70691;PMS5003;58267;51.156;17.044;2022-10-16T15:17:17;15;14;
70691;PMS5003;58267;51.156;17.044;2022-10-16T15:19:42;21;20;
70691;PMS5003;58267;51.156;17.044;2022-10-16T15:22:09;20;20;
70691;PMS5003;58267;51.156;17.044;2022-10-16T15:24:33;8;7;
70691;PMS5003;58267;51.156;17.044;2022-10-16T15:26:59;16;16;
70691;PMS5003;58267;51.156;17.044;2022-10-16T15:29:24;13;13;
70691;PMS5003;58267;51.156;17.044;2022-10-16T15:31:50;30;27;
70691;PMS5003;58267;51.156;17.044;2022-10-16T15:34:15;22;20;
70691;PMS5003;58267;51.156;17.044;2022-10-16T15:36:41;16;16;
70691;PMS5003;58267;51.156;17.044;2022-10-16T15:39:10;20;19;
70691;PMS5003;58267;51.156;17.044;2022-10-16T15:41:32;14;13;
70691;PMS5003;58267;51.156;17.044;2022-10-16T15:43:58;25;25;
70691;PMS5003;58267;51.156;17.044;2022-10-16T15:46:24;18;18;
70691;PMS5003;58267;51.156;17.044;2022-10-16T15:48:50;21;21;
70691;PMS5003;58267;51.156;17.044;2022-10-16T15:51:14;21;21;
70691;PMS5003;58267;51.156;17.044;2022-10-16T15:53:40;21;20;
70691;PMS5003;58267;51.156;17.044;2022-10-16T15:56:06;21;21;
70691;PMS5003;58267;51.156;17.044;2022-10-16T15:58:31;15;15;
70691;PMS5003;58267;51.156;17.044;2022-10-16T16:00:56;27;25;
70691;PMS5003;58267;51.156;17.044;2022-10-16T16:03:21;27;27;
70691;PMS5003;58267;51.156;17.044;2022-10-16T16:05:47;15;13;
70691;PMS5003;58267;51.156;17.044;2022-10-16T16:08:12;15;15;
70691;PMS5003;58267;51.156;17.044;2022-10-16T16:10:37;20;20;
70691;PMS5003;58267;51.156;17.044;2022-10-16T16:13:04;17;15;
70691;PMS5003;58267;51.156;17.044;2022-10-16T16:15:29;22;22;
70691;PMS5003;58267;51.156;17.044;2022-10-16T16:17:54;23;22;
70691;PMS5003;58267;51.156;17.044;2022-10-16T16:20:20;24;24;
70691;PMS5003;58267;51.156;17.044;2022-10-16T16:22:46;22;22;
70691;PMS5003;58267;51.156;17.044;2022-10-16T16:25:12;23;23;